sensor_id;sensor_type;location;lat;lon;timestamp;P1;durP1;ratioP1;P2;durP2;ratioP2
66581;SDS011;53438;48.898;2.308;2023-12-20T00:01:34;9.95;;;5.55;;
66581;SDS011;53438;48.898;2.308;2023-12-20T00:04:00;11.17;;;5.60;;
66581;SDS011;53438;48.898;2.308;2023-12-20T00:06:25;12.03;;;5.37;;
66581;SDS011;53438;48.898;2.308;2023-12-20T00:08:50;9.13;;;6.00;;
66581;SDS011;53438;48.898;2.308;2023-12-20T00:11:16;10.20;;;5.03;;
66581;SDS011;53438;48.898;2.308;2023-12-20T00:13:41;7.80;;;5.20;;
66581;SDS011;53438;48.898;2.308;2023-12-20T00:16:06;13.50;;;5.33;;
66581;SDS011;53438;48.898;2.308;2023-12-20T00:18:32;8.97;;;4.23;;
66581;SDS011;53438;48.898;2.308;2023-12-20T00:20:57;8.43;;;4.10;;
66581;SDS011;53438;48.898;2.308;2023-12-20T00:23:23;9.67;;;3.30;;
66581;SDS011;53438;48.898;2.308;2023-12-20T00:25:48;9.53;;;3.07;;
66581;SDS011;53438;48.898;2.308;2023-12-20T00:28:14;10.13;;;2.03;;
66581;SDS011;53438;48.898;2.308;2023-12-20T00:30:39;7.70;;;1.47;;
66581;SDS011;53438;48.898;2.308;2023-12-20T00:33:05;8.00;;;1.70;;
66581;SDS011;53438;48.898;2.308;2023-12-20T00:35:30;7.17;;;1.50;;
66581;SDS011;53438;48.898;2.308;2023-12-20T00:37:55;7.30;;;0.97;;
66581;SDS011;53438;48.898;2.308;2023-12-20T00:40:21;6.90;;;1.17;;
66581;SDS011;53438;48.898;2.308;2023-12-20T00:42:47;6.53;;;1.20;;
66581;SDS011;53438;48.898;2.308;2023-12-20T00:45:12;8.63;;;1.37;;
66581;SDS011;53438;48.898;2.308;2023-12-20T00:47:39;7.47;;;0.95;;
66581;SDS011;53438;48.898;2.308;2023-12-20T00:50:05;9.23;;;2.30;;
66581;SDS011;53438;48.898;2.308;2023-12-20T00:52:31;7.00;;;1.33;;
66581;SDS011;53438;48.898;2.308;2023-12-20T00:54:56;4.53;;;0.80;;
66581;SDS011;53438;48.898;2.308;2023-12-20T00:57:21;9.90;;;1.17;;
66581;SDS011;53438;48.898;2.308;2023-12-20T00:59:47;9.33;;;1.50;;
66581;SDS011;53438;48.898;2.308;2023-12-20T04:01:09;7.60;;;1.30;;
66581;SDS011;53438;48.898;2.308;2023-12-20T04:03:36;6.50;;;1.20;;
66581;SDS011;53438;48.898;2.308;2023-12-20T04:06:02;3.83;;;1.20;;
66581;SDS011;53438;48.898;2.308;2023-12-20T04:08:27;7.80;;;1.10;;
66581;SDS011;53438;48.898;2.308;2023-12-20T04:10:53;10.93;;;1.73;;
66581;SDS011;53438;48.898;2.308;2023-12-20T04:13:18;5.50;;;1.17;;
66581;SDS011;53438;48.898;2.308;2023-12-20T04:15:43;5.47;;;1.57;;
66581;SDS011;53438;48.898;2.308;2023-12-20T04:18:09;6.20;;;1.60;;
66581;SDS011;53438;48.898;2.308;2023-12-20T04:20:34;7.57;;;1.57;;
66581;SDS011;53438;48.898;2.308;2023-12-20T04:22:59;8.57;;;0.80;;
66581;SDS011;53438;48.898;2.308;2023-12-20T04:25:25;5.00;;;1.40;;
66581;SDS011;53438;48.898;2.308;2023-12-20T04:27:50;8.70;;;1.08;;
66581;SDS011;53438;48.898;2.308;2023-12-20T04:30:15;7.38;;;0.80;;
66581;SDS011;53438;48.898;2.308;2023-12-20T04:32:40;7.82;;;1.20;;
66581;SDS011;53438;48.898;2.308;2023-12-20T04:35:06;5.15;;;0.90;;
66581;SDS011;53438;48.898;2.308;2023-12-20T04:37:33;7.97;;;1.20;;
66581;SDS011;53438;48.898;2.308;2023-12-20T04:39:58;8.07;;;1.30;;
66581;SDS011;53438;48.898;2.308;2023-12-20T04:42:24;13.07;;;1.17;;
66581;SDS011;53438;48.898;2.308;2023-12-20T04:44:49;9.40;;;1.10;;
66581;SDS011;53438;48.898;2.308;2023-12-20T04:47:14;7.43;;;0.97;;
66581;SDS011;53438;48.898;2.308;2023-12-20T04:49:40;7.43;;;1.20;;
66581;SDS011;53438;48.898;2.308;2023-12-20T04:52:05;8.07;;;1.07;;
66581;SDS011;53438;48.898;2.308;2023-12-20T04:54:31;5.43;;;0.90;;
66581;SDS011;53438;48.898;2.308;2023-12-20T04:56:56;6.87;;;1.27;;
66581;SDS011;53438;48.898;2.308;2023-12-20T04:59:21;6.47;;;0.80;;
66581;SDS011;53438;48.898;2.308;2023-12-20T05:01:47;6.27;;;0.63;;
66581;SDS011;53438;48.898;2.308;2023-12-20T05:04:12;5.55;;;1.30;;
66581;SDS011;53438;48.898;2.308;2023-12-20T05:06:37;8.00;;;1.00;;
66581;SDS011;53438;48.898;2.308;2023-12-20T05:09:03;9.00;;;2.33;;
66581;SDS011;53438;48.898;2.308;2023-12-20T05:11:28;12.03;;;1.70;;
66581;SDS011;53438;48.898;2.308;2023-12-20T05:13:53;8.87;;;1.20;;
66581;SDS011;53438;48.898;2.308;2023-12-20T05:16:19;2.13;;;0.73;;
66581;SDS011;53438;48.898;2.308;2023-12-20T05:18:45;9.80;;;1.20;;
66581;SDS011;53438;48.898;2.308;2023-12-20T05:21:10;9.93;;;1.80;;
66581;SDS011;53438;48.898;2.308;2023-12-20T05:23:36;7.82;;;1.02;;
66581;SDS011;53438;48.898;2.308;2023-12-20T05:26:01;11.63;;;1.70;;
66581;SDS011;53438;48.898;2.308;2023-12-20T05:28:27;9.83;;;1.53;;
66581;SDS011;53438;48.898;2.308;2023-12-20T05:30:52;7.47;;;1.10;;
66581;SDS011;53438;48.898;2.308;2023-12-20T05:33:18;7.45;;;1.05;;
66581;SDS011;53438;48.898;2.308;2023-12-20T05:35:43;9.43;;;0.80;;
66581;SDS011;53438;48.898;2.308;2023-12-20T05:38:08;11.87;;;1.50;;
66581;SDS011;53438;48.898;2.308;2023-12-20T05:40:34;9.03;;;0.90;;
66581;SDS011;53438;48.898;2.308;2023-12-20T05:42:59;9.87;;;1.87;;
66581;SDS011;53438;48.898;2.308;2023-12-20T05:45:25;6.37;;;1.47;;
66581;SDS011;53438;48.898;2.308;2023-12-20T05:47:50;10.87;;;1.10;;
66581;SDS011;53438;48.898;2.308;2023-12-20T05:50:15;8.30;;;1.07;;
66581;SDS011;53438;48.898;2.308;2023-12-20T05:52:40;7.70;;;1.00;;
66581;SDS011;53438;48.898;2.308;2023-12-20T05:55:06;5.17;;;1.20;;
66581;SDS011;53438;48.898;2.308;2023-12-20T05:57:31;10.00;;;1.35;;
66581;SDS011;53438;48.898;2.308;2023-12-20T05:59:57;13.20;;;1.60;;
66581;SDS011;53438;48.898;2.308;2023-12-20T06:02:22;5.07;;;0.73;;
66581;SDS011;53438;48.898;2.308;2023-12-20T06:04:48;8.63;;;1.20;;
66581;SDS011;53438;48.898;2.308;2023-12-20T06:07:13;10.00;;;1.90;;
66581;SDS011;53438;48.898;2.308;2023-12-20T06:09:39;8.77;;;1.50;;
66581;SDS011;53438;48.898;2.308;2023-12-20T06:12:05;6.78;;;1.70;;
66581;SDS011;53438;48.898;2.308;2023-12-20T06:14:31;8.35;;;1.90;;
66581;SDS011;53438;48.898;2.308;2023-12-20T06:16:57;8.47;;;1.93;;
66581;SDS011;53438;48.898;2.308;2023-12-20T06:19:22;6.73;;;1.37;;
66581;SDS011;53438;48.898;2.308;2023-12-20T06:21:48;9.90;;;1.20;;
66581;SDS011;53438;48.898;2.308;2023-12-20T06:24:13;11.32;;;1.30;;
66581;SDS011;53438;48.898;2.308;2023-12-20T06:26:39;8.30;;;1.10;;
66581;SDS011;53438;48.898;2.308;2023-12-20T06:29:04;11.73;;;1.60;;
66581;SDS011;53438;48.898;2.308;2023-12-20T06:31:30;8.13;;;1.47;;
66581;SDS011;53438;48.898;2.308;2023-12-20T06:33:55;7.57;;;1.10;;
66581;SDS011;53438;48.898;2.308;2023-12-20T06:36:23;5.82;;;0.90;;
66581;SDS011;53438;48.898;2.308;2023-12-20T06:38:49;8.60;;;1.48;;
66581;SDS011;53438;48.898;2.308;2023-12-20T06:41:15;7.80;;;1.30;;
66581;SDS011;53438;48.898;2.308;2023-12-20T06:43:40;14.25;;;1.88;;
66581;SDS011;53438;48.898;2.308;2023-12-20T06:46:06;8.57;;;1.77;;
66581;SDS011;53438;48.898;2.308;2023-12-20T06:48:31;10.43;;;1.30;;
66581;SDS011;53438;48.898;2.308;2023-12-20T06:50:57;12.40;;;1.55;;
66581;SDS011;53438;48.898;2.308;2023-12-20T06:53:24;6.78;;;1.23;;
66581;SDS011;53438;48.898;2.308;2023-12-20T06:55:49;11.30;;;1.67;;
66581;SDS011;53438;48.898;2.308;2023-12-20T06:58:15;6.73;;;1.20;;
66581;SDS011;53438;48.898;2.308;2023-12-20T07:00:40;10.10;;;1.60;;
66581;SDS011;53438;48.898;2.308;2023-12-20T07:03:05;10.13;;;1.53;;
66581;SDS011;53438;48.898;2.308;2023-12-20T07:05:31;9.70;;;1.93;;
66581;SDS011;53438;48.898;2.308;2023-12-20T07:07:56;10.57;;;1.37;;
66581;SDS011;53438;48.898;2.308;2023-12-20T07:10:21;10.30;;;1.40;;
66581;SDS011;53438;48.898;2.308;2023-12-20T07:12:47;12.57;;;1.70;;
66581;SDS011;53438;48.898;2.308;2023-12-20T07:15:13;7.40;;;1.55;;
66581;SDS011;53438;48.898;2.308;2023-12-20T07:17:39;12.23;;;1.57;;
66581;SDS011;53438;48.898;2.308;2023-12-20T07:20:04;8.50;;;1.33;;
66581;SDS011;53438;48.898;2.308;2023-12-20T07:22:33;9.75;;;1.20;;
66581;SDS011;53438;48.898;2.308;2023-12-20T07:24:59;12.52;;;3.20;;
66581;SDS011;53438;48.898;2.308;2023-12-20T07:27:25;6.88;;;1.40;;
66581;SDS011;53438;48.898;2.308;2023-12-20T07:29:50;9.60;;;1.67;;
66581;SDS011;53438;48.898;2.308;2023-12-20T07:32:16;9.10;;;1.92;;
66581;SDS011;53438;48.898;2.308;2023-12-20T07:34:41;12.37;;;1.43;;
66581;SDS011;53438;48.898;2.308;2023-12-20T07:37:07;8.53;;;2.37;;
66581;SDS011;53438;48.898;2.308;2023-12-20T07:39:35;14.45;;;1.90;;
66581;SDS011;53438;48.898;2.308;2023-12-20T07:42:00;9.70;;;2.73;;
66581;SDS011;53438;48.898;2.308;2023-12-20T07:44:26;14.13;;;3.07;;
66581;SDS011;53438;48.898;2.308;2023-12-20T07:46:51;12.40;;;1.70;;
66581;SDS011;53438;48.898;2.308;2023-12-20T07:49:16;9.77;;;1.30;;
66581;SDS011;53438;48.898;2.308;2023-12-20T07:51:42;14.70;;;1.87;;
66581;SDS011;53438;48.898;2.308;2023-12-20T07:54:07;10.03;;;1.93;;
66581;SDS011;53438;48.898;2.308;2023-12-20T07:56:33;10.60;;;1.73;;
66581;SDS011;53438;48.898;2.308;2023-12-20T07:58:58;8.93;;;1.60;;
66581;SDS011;53438;48.898;2.308;2023-12-20T08:01:24;12.03;;;3.37;;
66581;SDS011;53438;48.898;2.308;2023-12-20T08:03:49;9.07;;;1.80;;
66581;SDS011;53438;48.898;2.308;2023-12-20T08:06:15;9.57;;;1.60;;
66581;SDS011;53438;48.898;2.308;2023-12-20T08:08:42;8.50;;;1.80;;
66581;SDS011;53438;48.898;2.308;2023-12-20T08:11:07;10.43;;;2.10;;
66581;SDS011;53438;48.898;2.308;2023-12-20T08:13:32;14.73;;;2.70;;
66581;SDS011;53438;48.898;2.308;2023-12-20T08:15:58;10.40;;;2.43;;
66581;SDS011;53438;48.898;2.308;2023-12-20T08:18:24;10.38;;;2.03;;
66581;SDS011;53438;48.898;2.308;2023-12-20T08:20:49;19.33;;;2.50;;
66581;SDS011;53438;48.898;2.308;2023-12-20T08:23:15;12.93;;;2.93;;
66581;SDS011;53438;48.898;2.308;2023-12-20T08:25:40;13.15;;;2.60;;
66581;SDS011;53438;48.898;2.308;2023-12-20T08:28:06;10.73;;;2.00;;
66581;SDS011;53438;48.898;2.308;2023-12-20T08:30:31;10.37;;;2.23;;
66581;SDS011;53438;48.898;2.308;2023-12-20T08:32:59;10.65;;;2.13;;
66581;SDS011;53438;48.898;2.308;2023-12-20T08:35:25;16.13;;;3.30;;
66581;SDS011;53438;48.898;2.308;2023-12-20T08:37:50;11.27;;;2.10;;
66581;SDS011;53438;48.898;2.308;2023-12-20T08:40:16;10.73;;;2.97;;
66581;SDS011;53438;48.898;2.308;2023-12-20T08:42:41;10.23;;;2.27;;
66581;SDS011;53438;48.898;2.308;2023-12-20T08:45:06;19.60;;;3.63;;
66581;SDS011;53438;48.898;2.308;2023-12-20T08:47:32;13.35;;;2.53;;
66581;SDS011;53438;48.898;2.308;2023-12-20T08:49:57;20.67;;;2.53;;
66581;SDS011;53438;48.898;2.308;2023-12-20T08:52:25;14.50;;;2.80;;
66581;SDS011;53438;48.898;2.308;2023-12-20T08:54:52;14.02;;;2.92;;
66581;SDS011;53438;48.898;2.308;2023-12-20T08:57:19;15.32;;;2.78;;
66581;SDS011;53438;48.898;2.308;2023-12-20T08:59:46;13.40;;;3.13;;
66581;SDS011;53438;48.898;2.308;2023-12-20T09:02:12;15.68;;;2.90;;
66581;SDS011;53438;48.898;2.308;2023-12-20T09:04:37;17.40;;;2.33;;
66581;SDS011;53438;48.898;2.308;2023-12-20T09:07:03;18.83;;;3.30;;
66581;SDS011;53438;48.898;2.308;2023-12-20T09:09:28;10.87;;;1.90;;
66581;SDS011;53438;48.898;2.308;2023-12-20T09:11:54;10.73;;;2.15;;
66581;SDS011;53438;48.898;2.308;2023-12-20T09:14:19;13.47;;;2.20;;
66581;SDS011;53438;48.898;2.308;2023-12-20T09:16:45;13.03;;;2.10;;
66581;SDS011;53438;48.898;2.308;2023-12-20T09:19:10;15.57;;;2.10;;
66581;SDS011;53438;48.898;2.308;2023-12-20T09:21:35;13.83;;;2.17;;
66581;SDS011;53438;48.898;2.308;2023-12-20T09:24:01;12.93;;;2.00;;
66581;SDS011;53438;48.898;2.308;2023-12-20T09:26:26;11.37;;;1.90;;
66581;SDS011;53438;48.898;2.308;2023-12-20T09:28:51;18.00;;;3.57;;
66581;SDS011;53438;48.898;2.308;2023-12-20T09:31:17;12.93;;;2.03;;
66581;SDS011;53438;48.898;2.308;2023-12-20T09:33:42;13.27;;;2.83;;
66581;SDS011;53438;48.898;2.308;2023-12-20T09:36:07;10.80;;;1.63;;
66581;SDS011;53438;48.898;2.308;2023-12-20T09:38:33;13.23;;;2.00;;
66581;SDS011;53438;48.898;2.308;2023-12-20T09:40:58;13.30;;;1.90;;
66581;SDS011;53438;48.898;2.308;2023-12-20T09:43:24;11.80;;;1.97;;
66581;SDS011;53438;48.898;2.308;2023-12-20T09:45:52;18.75;;;4.18;;
66581;SDS011;53438;48.898;2.308;2023-12-20T09:48:18;18.30;;;3.22;;
66581;SDS011;53438;48.898;2.308;2023-12-20T09:50:44;24.90;;;3.72;;
66581;SDS011;53438;48.898;2.308;2023-12-20T09:53:11;15.07;;;2.30;;
66581;SDS011;53438;48.898;2.308;2023-12-20T09:55:39;17.50;;;2.72;;
66581;SDS011;53438;48.898;2.308;2023-12-20T09:58:06;20.17;;;2.80;;
66581;SDS011;53438;48.898;2.308;2023-12-20T10:00:33;15.55;;;2.72;;
66581;SDS011;53438;48.898;2.308;2023-12-20T10:03:02;17.70;;;2.90;;
66581;SDS011;53438;48.898;2.308;2023-12-20T10:05:32;18.77;;;2.33;;
66581;SDS011;53438;48.898;2.308;2023-12-20T10:07:58;11.00;;;1.80;;
66581;SDS011;53438;48.898;2.308;2023-12-20T10:10:25;16.75;;;2.55;;
66581;SDS011;53438;48.898;2.308;2023-12-20T10:15:28;15.88;;;2.40;;
66581;SDS011;53438;48.898;2.308;2023-12-20T10:17:53;14.27;;;2.22;;
66581;SDS011;53438;48.898;2.308;2023-12-20T10:20:19;13.30;;;3.70;;
66581;SDS011;53438;48.898;2.308;2023-12-20T10:22:45;10.80;;;1.77;;
66581;SDS011;53438;48.898;2.308;2023-12-20T10:25:11;13.40;;;2.83;;
66581;SDS011;53438;48.898;2.308;2023-12-20T10:27:37;15.37;;;2.00;;
66581;SDS011;53438;48.898;2.308;2023-12-20T10:30:02;17.17;;;1.77;;
66581;SDS011;53438;48.898;2.308;2023-12-20T10:32:27;16.53;;;2.33;;
66581;SDS011;53438;48.898;2.308;2023-12-20T10:34:54;14.90;;;2.33;;
66581;SDS011;53438;48.898;2.308;2023-12-20T10:37:20;12.90;;;1.77;;
66581;SDS011;53438;48.898;2.308;2023-12-20T10:39:49;10.00;;;3.25;;
66581;SDS011;53438;48.898;2.308;2023-12-20T10:42:17;20.37;;;3.70;;
66581;SDS011;53438;48.898;2.308;2023-12-20T10:44:46;13.23;;;3.75;;
66581;SDS011;53438;48.898;2.308;2023-12-20T10:47:11;20.58;;;4.30;;
66581;SDS011;53438;48.898;2.308;2023-12-20T10:49:38;13.38;;;1.92;;
66581;SDS011;53438;48.898;2.308;2023-12-20T10:52:04;11.40;;;1.60;;
66581;SDS011;53438;48.898;2.308;2023-12-20T10:54:31;10.77;;;1.67;;
66581;SDS011;53438;48.898;2.308;2023-12-20T10:56:57;13.57;;;2.50;;
66581;SDS011;53438;48.898;2.308;2023-12-20T10:59:23;14.30;;;2.60;;
66581;SDS011;53438;48.898;2.308;2023-12-20T11:01:50;8.90;;;2.63;;
66581;SDS011;53438;48.898;2.308;2023-12-20T11:04:19;10.25;;;1.90;;
66581;SDS011;53438;48.898;2.308;2023-12-20T11:06:54;9.73;;;2.53;;
66581;SDS011;53438;48.898;2.308;2023-12-20T11:11:56;9.40;;;1.77;;
66581;SDS011;53438;48.898;2.308;2023-12-20T11:17:09;10.98;;;1.73;;
66581;SDS011;53438;48.898;2.308;2023-12-20T11:22:21;11.10;;;2.40;;
66581;SDS011;53438;48.898;2.308;2023-12-20T11:24:47;10.20;;;2.15;;
66581;SDS011;53438;48.898;2.308;2023-12-20T11:27:14;9.38;;;1.73;;
66581;SDS011;53438;48.898;2.308;2023-12-20T11:29:39;13.52;;;2.90;;
66581;SDS011;53438;48.898;2.308;2023-12-20T11:37:21;10.18;;;2.58;;
66581;SDS011;53438;48.898;2.308;2023-12-20T11:39:54;10.88;;;2.40;;
66581;SDS011;53438;48.898;2.308;2023-12-20T11:42:21;15.07;;;3.40;;
66581;SDS011;53438;48.898;2.308;2023-12-20T11:44:46;11.47;;;2.20;;
66581;SDS011;53438;48.898;2.308;2023-12-20T11:47:12;13.37;;;2.87;;
66581;SDS011;53438;48.898;2.308;2023-12-20T11:49:38;9.93;;;1.90;;
66581;SDS011;53438;48.898;2.308;2023-12-20T11:52:04;17.33;;;3.33;;
66581;SDS011;53438;48.898;2.308;2023-12-20T11:54:30;13.13;;;3.33;;
66581;SDS011;53438;48.898;2.308;2023-12-20T11:56:55;20.90;;;2.50;;
66581;SDS011;53438;48.898;2.308;2023-12-20T11:59:20;14.70;;;2.10;;
66581;SDS011;53438;48.898;2.308;2023-12-20T12:01:49;12.70;;;2.73;;
66581;SDS011;53438;48.898;2.308;2023-12-20T12:04:15;9.70;;;2.40;;
66581;SDS011;53438;48.898;2.308;2023-12-20T12:06:42;15.30;;;3.10;;
66581;SDS011;53438;48.898;2.308;2023-12-20T12:09:08;15.37;;;2.77;;
66581;SDS011;53438;48.898;2.308;2023-12-20T12:11:33;25.60;;;7.57;;
66581;SDS011;53438;48.898;2.308;2023-12-20T12:13:59;14.80;;;3.50;;
66581;SDS011;53438;48.898;2.308;2023-12-20T12:16:25;16.03;;;3.47;;
66581;SDS011;53438;48.898;2.308;2023-12-20T12:18:57;12.73;;;3.88;;
66581;SDS011;53438;48.898;2.308;2023-12-20T12:21:22;12.70;;;2.60;;
66581;SDS011;53438;48.898;2.308;2023-12-20T12:23:48;13.65;;;2.20;;
66581;SDS011;53438;48.898;2.308;2023-12-20T12:26:13;14.37;;;2.63;;
66581;SDS011;53438;48.898;2.308;2023-12-20T12:28:42;10.67;;;2.47;;
66581;SDS011;53438;48.898;2.308;2023-12-20T12:31:08;11.43;;;2.42;;
66581;SDS011;53438;48.898;2.308;2023-12-20T12:33:34;15.45;;;2.90;;
66581;SDS011;53438;48.898;2.308;2023-12-20T12:36:03;9.20;;;1.75;;
66581;SDS011;53438;48.898;2.308;2023-12-20T12:38:30;15.20;;;2.45;;
66581;SDS011;53438;48.898;2.308;2023-12-20T12:40:55;16.45;;;3.63;;
66581;SDS011;53438;48.898;2.308;2023-12-20T12:43:21;14.80;;;2.75;;
66581;SDS011;53438;48.898;2.308;2023-12-20T12:45:48;10.98;;;2.45;;
66581;SDS011;53438;48.898;2.308;2023-12-20T12:48:13;12.50;;;2.47;;
66581;SDS011;53438;48.898;2.308;2023-12-20T12:50:39;12.93;;;2.70;;
66581;SDS011;53438;48.898;2.308;2023-12-20T12:53:04;16.23;;;3.43;;
66581;SDS011;53438;48.898;2.308;2023-12-20T12:55:30;15.60;;;2.20;;
66581;SDS011;53438;48.898;2.308;2023-12-20T12:57:55;19.53;;;2.83;;
66581;SDS011;53438;48.898;2.308;2023-12-20T13:00:21;11.65;;;2.30;;
66581;SDS011;53438;48.898;2.308;2023-12-20T13:02:46;9.70;;;2.57;;
66581;SDS011;53438;48.898;2.308;2023-12-20T13:05:12;12.73;;;2.20;;
66581;SDS011;53438;48.898;2.308;2023-12-20T13:07:37;14.85;;;2.30;;
66581;SDS011;53438;48.898;2.308;2023-12-20T13:10:04;16.20;;;2.70;;
66581;SDS011;53438;48.898;2.308;2023-12-20T13:12:30;16.92;;;3.75;;
66581;SDS011;53438;48.898;2.308;2023-12-20T13:14:57;15.23;;;3.28;;
66581;SDS011;53438;48.898;2.308;2023-12-20T13:17:22;26.27;;;3.93;;
66581;SDS011;53438;48.898;2.308;2023-12-20T13:19:47;13.97;;;2.97;;
66581;SDS011;53438;48.898;2.308;2023-12-20T13:22:14;16.48;;;3.33;;
66581;SDS011;53438;48.898;2.308;2023-12-20T13:24:40;14.25;;;2.67;;
66581;SDS011;53438;48.898;2.308;2023-12-20T13:27:05;14.10;;;2.60;;
66581;SDS011;53438;48.898;2.308;2023-12-20T13:29:31;14.47;;;2.47;;
66581;SDS011;53438;48.898;2.308;2023-12-20T13:31:56;10.03;;;2.23;;
66581;SDS011;53438;48.898;2.308;2023-12-20T13:34:22;13.38;;;2.33;;
66581;SDS011;53438;48.898;2.308;2023-12-20T13:36:48;11.15;;;2.00;;
66581;SDS011;53438;48.898;2.308;2023-12-20T13:39:15;9.88;;;1.70;;
66581;SDS011;53438;48.898;2.308;2023-12-20T13:41:41;14.05;;;2.40;;
66581;SDS011;53438;48.898;2.308;2023-12-20T13:44:07;17.83;;;3.17;;
66581;SDS011;53438;48.898;2.308;2023-12-20T13:46:32;15.57;;;2.60;;
66581;SDS011;53438;48.898;2.308;2023-12-20T13:48:58;17.30;;;2.30;;
66581;SDS011;53438;48.898;2.308;2023-12-20T13:51:23;12.27;;;1.80;;
66581;SDS011;53438;48.898;2.308;2023-12-20T13:53:48;7.80;;;1.70;;
66581;SDS011;53438;48.898;2.308;2023-12-20T13:56:14;15.40;;;3.27;;
66581;SDS011;53438;48.898;2.308;2023-12-20T13:58:40;7.35;;;2.38;;
66581;SDS011;53438;48.898;2.308;2023-12-20T14:01:06;7.93;;;1.23;;
66581;SDS011;53438;48.898;2.308;2023-12-20T14:03:32;8.60;;;2.80;;
66581;SDS011;53438;48.898;2.308;2023-12-20T14:05:57;10.03;;;2.20;;
66581;SDS011;53438;48.898;2.308;2023-12-20T14:08:23;8.90;;;1.87;;
66581;SDS011;53438;48.898;2.308;2023-12-20T14:26:30;7.53;;;2.17;;
66581;SDS011;53438;48.898;2.308;2023-12-20T14:28:56;13.02;;;2.42;;
66581;SDS011;53438;48.898;2.308;2023-12-20T14:31:21;14.77;;;2.27;;
66581;SDS011;53438;48.898;2.308;2023-12-20T14:33:49;7.78;;;2.03;;
66581;SDS011;53438;48.898;2.308;2023-12-20T14:36:15;8.00;;;1.85;;
66581;SDS011;53438;48.898;2.308;2023-12-20T14:38:42;10.57;;;2.15;;
66581;SDS011;53438;48.898;2.308;2023-12-20T14:41:08;13.80;;;2.87;;
66581;SDS011;53438;48.898;2.308;2023-12-20T14:43:33;7.38;;;2.08;;
66581;SDS011;53438;48.898;2.308;2023-12-20T14:45:59;9.23;;;1.60;;
66581;SDS011;53438;48.898;2.308;2023-12-20T14:48:24;7.77;;;3.10;;
66581;SDS011;53438;48.898;2.308;2023-12-20T14:50:50;9.63;;;4.40;;
66581;SDS011;53438;48.898;2.308;2023-12-20T14:53:17;25.17;;;13.87;;
66581;SDS011;53438;48.898;2.308;2023-12-20T14:55:43;26.75;;;13.80;;
66581;SDS011;53438;48.898;2.308;2023-12-20T14:58:09;11.85;;;3.08;;
66581;SDS011;53438;48.898;2.308;2023-12-20T15:00:34;20.83;;;6.27;;
66581;SDS011;53438;48.898;2.308;2023-12-20T15:03:00;12.70;;;2.20;;
66581;SDS011;53438;48.898;2.308;2023-12-20T15:05:25;12.20;;;1.93;;
66581;SDS011;53438;48.898;2.308;2023-12-20T15:07:51;8.32;;;2.95;;
66581;SDS011;53438;48.898;2.308;2023-12-20T15:10:17;12.32;;;2.45;;
66581;SDS011;53438;48.898;2.308;2023-12-20T15:12:43;13.30;;;1.97;;
66581;SDS011;53438;48.898;2.308;2023-12-20T15:15:08;12.67;;;1.50;;
66581;SDS011;53438;48.898;2.308;2023-12-20T15:17:37;10.85;;;1.75;;
66581;SDS011;53438;48.898;2.308;2023-12-20T15:20:03;5.30;;;1.57;;
66581;SDS011;53438;48.898;2.308;2023-12-20T15:22:34;9.43;;;2.25;;
66581;SDS011;53438;48.898;2.308;2023-12-20T15:25:00;12.03;;;3.30;;
66581;SDS011;53438;48.898;2.308;2023-12-20T15:27:26;7.88;;;1.88;;
66581;SDS011;53438;48.898;2.308;2023-12-20T15:29:51;12.67;;;1.97;;
66581;SDS011;53438;48.898;2.308;2023-12-20T15:32:18;8.57;;;1.75;;
66581;SDS011;53438;48.898;2.308;2023-12-20T15:34:44;8.63;;;1.57;;
66581;SDS011;53438;48.898;2.308;2023-12-20T15:37:10;11.57;;;3.08;;
66581;SDS011;53438;48.898;2.308;2023-12-20T15:39:35;10.30;;;2.17;;
66581;SDS011;53438;48.898;2.308;2023-12-20T15:42:00;9.27;;;2.10;;
66581;SDS011;53438;48.898;2.308;2023-12-20T15:44:26;8.17;;;1.60;;
66581;SDS011;53438;48.898;2.308;2023-12-20T15:46:51;8.73;;;1.98;;
66581;SDS011;53438;48.898;2.308;2023-12-20T15:49:16;5.20;;;1.27;;
66581;SDS011;53438;48.898;2.308;2023-12-20T15:51:43;6.43;;;1.83;;
66581;SDS011;53438;48.898;2.308;2023-12-20T15:54:09;6.68;;;1.25;;
66581;SDS011;53438;48.898;2.308;2023-12-20T15:56:34;6.03;;;1.57;;
66581;SDS011;53438;48.898;2.308;2023-12-20T15:59:01;9.13;;;1.45;;
66581;SDS011;53438;48.898;2.308;2023-12-20T16:01:27;9.87;;;1.80;;
66581;SDS011;53438;48.898;2.308;2023-12-20T16:03:54;11.98;;;3.40;;
66581;SDS011;53438;48.898;2.308;2023-12-20T16:06:19;8.23;;;1.70;;
66581;SDS011;53438;48.898;2.308;2023-12-20T16:08:46;8.02;;;1.33;;
66581;SDS011;53438;48.898;2.308;2023-12-20T16:11:11;6.03;;;1.30;;
66581;SDS011;53438;48.898;2.308;2023-12-20T16:13:36;8.70;;;2.13;;
66581;SDS011;53438;48.898;2.308;2023-12-20T16:16:02;10.45;;;2.40;;
66581;SDS011;53438;48.898;2.308;2023-12-20T16:18:28;5.55;;;1.70;;
66581;SDS011;53438;48.898;2.308;2023-12-20T16:20:54;7.72;;;1.73;;
66581;SDS011;53438;48.898;2.308;2023-12-20T16:23:19;10.37;;;1.57;;
66581;SDS011;53438;48.898;2.308;2023-12-20T16:25:45;9.60;;;2.10;;
66581;SDS011;53438;48.898;2.308;2023-12-20T16:28:10;6.03;;;1.33;;
66581;SDS011;53438;48.898;2.308;2023-12-20T16:30:35;9.63;;;1.55;;
66581;SDS011;53438;48.898;2.308;2023-12-20T16:33:01;9.00;;;1.90;;
66581;SDS011;53438;48.898;2.308;2023-12-20T16:35:27;9.67;;;3.37;;
66581;SDS011;53438;48.898;2.308;2023-12-20T16:37:53;9.20;;;1.45;;
66581;SDS011;53438;48.898;2.308;2023-12-20T16:40:18;8.63;;;2.03;;
66581;SDS011;53438;48.898;2.308;2023-12-20T16:42:49;13.93;;;1.88;;
66581;SDS011;53438;48.898;2.308;2023-12-20T16:45:14;7.53;;;1.70;;
66581;SDS011;53438;48.898;2.308;2023-12-20T16:47:40;9.93;;;1.70;;
66581;SDS011;53438;48.898;2.308;2023-12-20T16:50:05;9.70;;;1.90;;
66581;SDS011;53438;48.898;2.308;2023-12-20T16:52:31;9.05;;;2.60;;
66581;SDS011;53438;48.898;2.308;2023-12-20T16:54:57;7.32;;;1.60;;
66581;SDS011;53438;48.898;2.308;2023-12-20T16:57:23;7.73;;;1.87;;
66581;SDS011;53438;48.898;2.308;2023-12-20T16:59:48;9.53;;;2.40;;
66581;SDS011;53438;48.898;2.308;2023-12-20T17:02:13;10.37;;;2.40;;
66581;SDS011;53438;48.898;2.308;2023-12-20T17:04:39;9.23;;;2.30;;
66581;SDS011;53438;48.898;2.308;2023-12-20T17:07:04;6.45;;;1.70;;
66581;SDS011;53438;48.898;2.308;2023-12-20T17:09:30;7.85;;;1.90;;
66581;SDS011;53438;48.898;2.308;2023-12-20T17:11:56;6.00;;;1.97;;
66581;SDS011;53438;48.898;2.308;2023-12-20T17:14:21;6.15;;;1.35;;
66581;SDS011;53438;48.898;2.308;2023-12-20T17:16:47;10.93;;;2.30;;
66581;SDS011;53438;48.898;2.308;2023-12-20T17:19:13;5.93;;;1.58;;
66581;SDS011;53438;48.898;2.308;2023-12-20T17:21:39;3.50;;;1.37;;
66581;SDS011;53438;48.898;2.308;2023-12-20T17:24:04;6.27;;;1.90;;
66581;SDS011;53438;48.898;2.308;2023-12-20T17:26:30;9.80;;;2.13;;
66581;SDS011;53438;48.898;2.308;2023-12-20T17:28:55;4.40;;;1.20;;
66581;SDS011;53438;48.898;2.308;2023-12-20T17:31:21;8.07;;;2.73;;
66581;SDS011;53438;48.898;2.308;2023-12-20T17:33:46;11.37;;;2.33;;
66581;SDS011;53438;48.898;2.308;2023-12-20T17:36:12;6.73;;;1.70;;
66581;SDS011;53438;48.898;2.308;2023-12-20T17:38:39;8.27;;;2.20;;
66581;SDS011;53438;48.898;2.308;2023-12-20T17:41:05;10.15;;;1.83;;
66581;SDS011;53438;48.898;2.308;2023-12-20T17:43:31;8.60;;;1.70;;
66581;SDS011;53438;48.898;2.308;2023-12-20T17:45:57;9.07;;;2.70;;
66581;SDS011;53438;48.898;2.308;2023-12-20T17:48:23;9.03;;;2.53;;
66581;SDS011;53438;48.898;2.308;2023-12-20T17:50:48;9.50;;;3.00;;
66581;SDS011;53438;48.898;2.308;2023-12-20T17:53:14;6.30;;;1.73;;
66581;SDS011;53438;48.898;2.308;2023-12-20T17:55:39;5.07;;;1.43;;
66581;SDS011;53438;48.898;2.308;2023-12-20T17:58:04;6.30;;;1.23;;
66581;SDS011;53438;48.898;2.308;2023-12-20T18:00:31;9.90;;;2.80;;
66581;SDS011;53438;48.898;2.308;2023-12-20T18:02:58;9.30;;;2.97;;